Time;durP1;ratioP1;P1;durP2;ratioP2;P2;SDS_P1;SDS_P2;PMS_P1;PMS_P2;Temp;Humidity;BMP_temperature;BMP_pressure;BME280_temperature;BME280_humidity;BME280_pressure;Samples;Min_cycle;Max_cycle;Signal;HPM_P1;HPM_P2
2023/07/21 00:00:13;;;;;;;2.80;1.43;;;;;;;;;;5049703;28;20231;-68
2023/07/21 00:02:42;;;;;;;4.73;1.90;;;;;;;;;;5040682;28;20214;-67
2023/07/21 00:05:10;;;;;;;1.90;1.60;;;;;;;;;;5040288;28;20313;-68
2023/07/21 00:07:38;;;;;;;48.67;35.55;;;;;;;;;;5040137;28;20249;-67
2023/07/21 00:10:07;;;;;;;10.37;4.93;;;;;;;;;;5040496;28;20235;-68
2023/07/21 00:12:37;;;;;;;1.93;1.83;;;;;;;;;;5040458;28;20601;-68
2023/07/21 00:15:06;;;;;;;3.43;2.10;;;;;;;;;;5040457;28;20227;-68
2023/07/21 00:17:34;;;;;;;2.77;1.80;;;;;;;;;;5050529;28;20207;-67
2023/07/21 00:20:10;;;;;;;2.23;1.67;;;;;;;;;;5042913;28;20772;-68
2023/07/21 00:22:37;;;;;;;3.87;2.30;;;;;;;;;;5040348;28;20209;-67
2023/07/21 00:25:06;;;;;;;3.87;2.10;;;;;;;;;;5039973;28;20228;-67
2023/07/21 00:27:35;;;;;;;5.87;2.63;;;;;;;;;;5040341;28;20214;-67
2023/07/21 00:30:07;;;;;;;3.13;2.10;;;;;;;;;;5040234;28;20224;-67
2023/07/21 00:32:35;;;;;;;3.20;2.00;;;;;;;;;;5039490;28;20236;-68
2023/07/21 00:35:05;;;;;;;3.07;1.90;;;;;;;;;;5040049;28;20211;-68
2023/07/21 00:37:33;;;;;;;1.93;1.73;;;;;;;;;;5040002;28;20219;-68
2023/07/21 00:40:03;;;;;;;3.57;1.83;;;;;;;;;;5043876;28;20314;-68
2023/07/21 00:42:30;;;;;;;4.67;2.30;;;;;;;;;;5044667;28;20292;-66
2023/07/21 00:44:58;;;;;;;1.83;1.57;;;;;;;;;;5040060;28;20236;-68
2023/07/21 00:47:28;;;;;;;3.43;2.50;;;;;;;;;;5040150;28;20300;-68
2023/07/21 00:49:56;;;;;;;2.50;2.30;;;;;;;;;;5039462;28;20593;-66
2023/07/21 00:52:24;;;;;;;4.10;2.10;;;;;;;;;;5039413;28;20267;-68
2023/07/21 00:54:52;;;;;;;3.43;2.30;;;;;;;;;;5039858;28;20298;-68
2023/07/21 00:57:21;;;;;;;5.13;2.17;;;;;;;;;;5039695;28;20212;-68
2023/07/21 00:59:49;;;;;;;1.80;1.70;;;;;;;;;;5049252;28;20265;-68
2023/07/21 01:02:17;;;;;;;2.80;2.17;;;;;;;;;;5042387;28;20295;-68
2023/07/21 01:04:47;;;;;;;2.17;1.67;;;;;;;;;;5039381;28;20235;-68
2023/07/21 01:07:15;;;;;;;1.70;1.47;;;;;;;;;;5039439;28;20209;-68
2023/07/21 01:09:43;;;;;;;1.50;1.40;;;;;;;;;;5039500;28;20215;-66
2023/07/21 01:12:11;;;;;;;2.27;1.37;;;;;;;;;;5039644;28;20214;-67
2023/07/21 01:14:39;;;;;;;2.53;1.60;;;;;;;;;;5039196;28;20211;-67
2023/07/21 01:17:08;;;;;;;3.23;1.70;;;;;;;;;;5045598;28;20208;-68
2023/07/21 01:19:37;;;;;;;2.07;1.40;;;;;;;;;;5056640;28;20213;-68
2023/07/21 01:22:09;;;;;;;1.47;1.37;;;;;;;;;;5059155;28;20675;-65
2023/07/21 01:24:43;;;;;;;1.77;1.67;;;;;;;;;;5059217;28;20342;-67
2023/07/21 01:27:13;;;;;;;3.57;1.70;;;;;;;;;;5059193;28;20207;-66
2023/07/21 01:29:42;;;;;;;3.53;1.63;;;;;;;;;;5059642;28;20272;-66
2023/07/21 01:32:11;;;;;;;2.03;1.47;;;;;;;;;;5059137;28;20208;-66
2023/07/21 01:34:40;;;;;;;2.47;1.17;;;;;;;;;;5058797;28;20211;-66
2023/07/21 01:37:08;;;;;;;1.63;1.40;;;;;;;;;;5058898;28;20216;-66
2023/07/21 01:39:37;;;;;;;5.27;1.70;;;;;;;;;;5058547;28;20220;-66
2023/07/21 01:42:05;;;;;;;2.90;1.50;;;;;;;;;;5040812;28;20291;-66
2023/07/21 01:44:35;;;;;;;1.77;1.50;;;;;;;;;;5038078;28;20209;-66
2023/07/21 01:47:04;;;;;;;2.23;1.60;;;;;;;;;;5038975;28;20215;-66
2023/07/21 01:49:32;;;;;;;2.40;1.50;;;;;;;;;;5038525;28;20210;-66
2023/07/21 01:52:00;;;;;;;4.63;1.67;;;;;;;;;;5038386;28;20211;-66
2023/07/21 01:54:41;;;;;;;4.27;1.77;;;;;;;;;;5038585;28;20217;-66
2023/07/21 01:57:11;;;;;;;4.47;1.70;;;;;;;;;;5038680;28;20252;-66
2023/07/21 01:59:42;;;;;;;1.50;1.30;;;;;;;;;;5044270;28;20205;-66
2023/07/21 02:02:10;;;;;;;4.70;2.10;;;;;;;;;;5038393;28;20222;-67
2023/07/21 02:04:38;;;;;;;2.87;1.60;;;;;;;;;;5037939;28;20213;-66
2023/07/21 02:07:06;;;;;;;1.87;1.77;;;;;;;;;;5038618;28;20235;-67
2023/07/21 02:09:34;;;;;;;3.63;2.40;;;;;;;;;;5038117;28;20207;-67
2023/07/21 02:12:01;;;;;;;2.00;1.73;;;;;;;;;;5038178;28;20256;-66
2023/07/21 02:14:29;;;;;;;2.27;1.63;;;;;;;;;;5038324;28;20679;-66
2023/07/21 02:16:58;;;;;;;4.30;1.73;;;;;;;;;;5042856;28;20566;-66
2023/07/21 02:19:26;;;;;;;3.10;1.60;;;;;;;;;;5046019;28;20204;-67
2023/07/21 02:21:54;;;;;;;3.73;1.53;;;;;;;;;;5038154;28;20216;-67
2023/07/21 02:24:22;;;;;;;2.10;1.70;;;;;;;;;;5038258;28;20217;-67
2023/07/21 02:26:50;;;;;;;2.50;1.80;;;;;;;;;;5037779;28;20238;-66
2023/07/21 02:29:17;;;;;;;3.03;2.10;;;;;;;;;;5038249;28;20243;-66
2023/07/21 02:31:45;;;;;;;1.70;1.60;;;;;;;;;;5044474;28;20226;-66
2023/07/21 02:34:15;;;;;;;2.70;2.17;;;;;;;;;;5057440;28;20292;-67
2023/07/21 02:36:43;;;;;;;3.67;1.80;;;;;;;;;;5057831;28;20210;-67
2023/07/21 02:39:11;;;;;;;2.13;1.73;;;;;;;;;;5057836;28;20725;-66
2023/07/21 02:41:39;;;;;;;1.40;1.30;;;;;;;;;;5050289;28;20281;-67
2023/07/21 02:44:06;;;;;;;2.90;1.33;;;;;;;;;;5037870;28;20669;-65
2023/07/21 02:46:36;;;;;;;2.40;1.60;;;;;;;;;;5037933;28;20227;-68
2023/07/21 02:49:03;;;;;;;1.47;1.37;;;;;;;;;;5037595;28;20225;-68
2023/07/21 02:51:33;;;;;;;3.00;1.70;;;;;;;;;;5037461;28;20665;-67
2023/07/21 02:54:01;;;;;;;4.53;1.50;;;;;;;;;;5037500;28;20211;-68
2023/07/21 02:56:29;;;;;;;2.53;2.33;;;;;;;;;;5037608;28;20207;-66
2023/07/21 02:58:58;;;;;;;4.10;1.63;;;;;;;;;;5040122;28;20217;-65
2023/07/21 03:01:26;;;;;;;2.20;2.00;;;;;;;;;;5047556;28;20231;-66
2023/07/21 03:03:55;;;;;;;3.47;2.37;;;;;;;;;;5037114;28;20211;-66
2023/07/21 03:06:23;;;;;;;3.33;2.00;;;;;;;;;;5037629;28;20226;-66
2023/07/21 03:08:52;;;;;;;3.70;1.70;;;;;;;;;;5037337;28;20217;-66
2023/07/21 03:11:21;;;;;;;1.93;1.50;;;;;;;;;;5037708;28;20234;-66
2023/07/21 03:13:49;;;;;;;2.90;1.60;;;;;;;;;;5037276;28;20212;-66
2023/07/21 03:16:17;;;;;;;1.40;1.30;;;;;;;;;;5037643;28;20207;-66
2023/07/21 03:18:45;;;;;;;2.23;1.93;;;;;;;;;;5050124;28;20227;-66
2023/07/21 03:21:12;;;;;;;3.27;1.50;;;;;;;;;;5054739;28;20633;-66
2023/07/21 03:23:40;;;;;;;2.63;1.70;;;;;;;;;;5043206;28;20655;-65
2023/07/21 03:26:09;;;;;;;1.63;1.27;;;;;;;;;;5037503;28;20231;-66
2023/07/21 03:28:38;;;;;;;4.13;1.47;;;;;;;;;;5037158;28;20208;-66
2023/07/21 03:31:05;;;;;;;3.50;1.70;;;;;;;;;;5037306;28;20227;-66
2023/07/21 03:33:33;;;;;;;2.67;1.50;;;;;;;;;;5036909;28;20237;-67
2023/07/21 03:36:02;;;;;;;1.93;1.37;;;;;;;;;;5037317;28;20290;-66
2023/07/21 03:38:30;;;;;;;4.90;1.93;;;;;;;;;;5037074;28;20326;-66
2023/07/21 03:41:02;;;;;;;1.40;1.30;;;;;;;;;;5039390;28;20242;-66
2023/07/21 03:43:31;;;;;;;3.00;1.73;;;;;;;;;;5036940;28;20214;-66
2023/07/21 03:45:59;;;;;;;2.03;1.70;;;;;;;;;;5037378;28;20227;-66
2023/07/21 03:48:27;;;;;;;7.40;2.67;;;;;;;;;;5037210;28;20247;-66
2023/07/21 03:50:58;;;;;;;2.80;1.67;;;;;;;;;;5037302;28;20234;-66
2023/07/21 03:53:27;;;;;;;1.47;1.37;;;;;;;;;;5037213;28;20772;-65
2023/07/21 03:56:03;;;;;;;1.57;1.20;;;;;;;;;;5037256;28;20211;-66
2023/07/21 03:58:32;;;;;;;1.53;1.40;;;;;;;;;;5037422;28;20208;-67
2023/07/21 04:01:00;;;;;;;3.97;2.03;;;;;;;;;;5041624;28;20255;-67
2023/07/21 04:03:28;;;;;;;2.43;1.60;;;;;;;;;;5036936;28;20269;-65
2023/07/21 04:05:57;;;;;;;1.77;1.33;;;;;;;;;;5036935;28;20301;-65
2023/07/21 04:08:24;;;;;;;3.33;1.40;;;;;;;;;;5039562;28;20207;-67
2023/07/21 04:10:52;;;;;;;5.07;1.67;;;;;;;;;;5040255;28;20312;-67
2023/07/21 04:13:20;;;;;;;5.30;1.70;;;;;;;;;;5040443;28;20203;-67
2023/07/21 04:15:51;;;;;;;2.03;1.30;;;;;;;;;;5040426;28;20211;-68
2023/07/21 04:18:19;;;;;;;1.97;1.50;;;;;;;;;;5053928;28;20214;-67
2023/07/21 04:20:48;;;;;;;1.60;1.50;;;;;;;;;;5040246;28;20231;-67
2023/07/21 04:23:15;;;;;;;4.00;1.40;;;;;;;;;;5040381;28;20209;-66
2023/07/21 04:25:43;;;;;;;5.23;1.53;;;;;;;;;;5040579;28;20220;-66
2023/07/21 04:28:11;;;;;;;2.70;1.70;;;;;;;;;;5039959;28;20241;-66
2023/07/21 04:30:39;;;;;;;5.57;1.67;;;;;;;;;;5040420;28;20249;-65
2023/07/21 04:33:08;;;;;;;3.70;1.60;;;;;;;;;;5040030;28;20238;-66
2023/07/21 04:35:36;;;;;;;2.33;1.80;;;;;;;;;;5040043;28;20210;-66
2023/07/21 04:38:03;;;;;;;3.17;1.70;;;;;;;;;;5039854;28;20681;-64
2023/07/21 04:40:31;;;;;;;3.87;1.63;;;;;;;;;;5048290;28;20728;-65
2023/07/21 04:42:59;;;;;;;1.83;1.50;;;;;;;;;;5041194;28;20206;-64
2023/07/21 04:45:27;;;;;;;3.63;2.53;;;;;;;;;;5040041;28;20220;-63
2023/07/21 04:47:55;;;;;;;4.03;2.93;;;;;;;;;;5039449;28;20233;-72
2023/07/21 04:50:25;;;;;;;3.60;2.47;;;;;;;;;;5061789;28;20230;-72
2023/07/21 04:52:53;;;;;;;5.43;2.90;;;;;;;;;;5063342;28;20221;-72
2023/07/21 04:55:22;;;;;;;4.67;2.00;;;;;;;;;;5068224;28;20282;-71
2023/07/21 04:57:50;;;;;;;5.97;2.40;;;;;;;;;;5064074;28;20624;-69
2023/07/21 05:00:18;;;;;;;2.63;2.20;;;;;;;;;;5066429;28;20244;-67
2023/07/21 05:02:46;;;;;;;2.67;2.03;;;;;;;;;;5069395;28;20569;-67
2023/07/21 05:05:15;;;;;;;4.10;2.00;;;;;;;;;;5046802;28;20688;-67
2023/07/21 05:07:44;;;;;;;2.10;1.90;;;;;;;;;;5049260;28;20710;-67
2023/07/21 05:10:12;;;;;;;2.73;1.87;;;;;;;;;;5056943;28;20231;-67
2023/07/21 05:12:40;;;;;;;2.73;2.10;;;;;;;;;;5055547;28;20218;-67
2023/07/21 05:15:08;;;;;;;7.07;1.97;;;;;;;;;;5043250;28;20273;-68
2023/07/21 05:17:35;;;;;;;2.00;1.80;;;;;;;;;;5049628;28;20203;-67
2023/07/21 05:20:05;;;;;;;4.47;1.80;;;;;;;;;;5041639;28;20230;-67
2023/07/21 05:22:33;;;;;;;2.20;1.80;;;;;;;;;;5058063;28;20205;-68
2023/07/21 05:25:05;;;;;;;1.83;1.57;;;;;;;;;;5066008;28;20202;-68
2023/07/21 05:27:33;;;;;;;3.10;1.87;;;;;;;;;;5070206;28;20224;-69
2023/07/21 05:30:01;;;;;;;3.10;2.07;;;;;;;;;;5039227;28;20234;-69
2023/07/21 05:32:29;;;;;;;2.50;1.77;;;;;;;;;;5038969;28;20212;-69
2023/07/21 05:34:57;;;;;;;1.73;1.60;;;;;;;;;;5039111;28;20227;-70
2023/07/21 05:37:24;;;;;;;7.80;1.80;;;;;;;;;;5038978;28;20229;-69
2023/07/21 05:39:52;;;;;;;3.80;1.80;;;;;;;;;;5041864;28;20219;-69
2023/07/21 05:42:21;;;;;;;1.67;1.57;;;;;;;;;;5040431;28;20212;-69
2023/07/21 05:44:49;;;;;;;3.23;1.77;;;;;;;;;;5039096;28;20669;-68
2023/07/21 05:47:19;;;;;;;2.70;1.30;;;;;;;;;;5039253;28;20338;-69
2023/07/21 05:49:46;;;;;;;2.77;1.83;;;;;;;;;;5044908;28;20218;-69
2023/07/21 05:52:14;;;;;;;4.30;1.83;;;;;;;;;;5045300;28;20646;-69
2023/07/21 05:54:42;;;;;;;2.93;1.90;;;;;;;;;;5058611;28;20210;-66
2023/07/21 05:57:12;;;;;;;3.20;1.70;;;;;;;;;;5054843;28;20200;-68
2023/07/21 05:59:45;;;;;;;2.10;1.83;;;;;;;;;;5040294;28;20208;-67
2023/07/21 06:02:12;;;;;;;1.53;1.43;;;;;;;;;;5038355;28;20583;-69
2023/07/21 06:04:42;;;;;;;2.17;1.70;;;;;;;;;;5038338;28;20263;-69
2023/07/21 06:07:12;;;;;;;4.27;1.83;;;;;;;;;;5038027;28;20233;-71
2023/07/21 06:09:40;;;;;;;4.93;1.83;;;;;;;;;;5038368;28;20245;-70
2023/07/21 06:12:08;;;;;;;4.73;2.10;;;;;;;;;;5038091;28;20209;-70
2023/07/21 06:14:36;;;;;;;4.40;1.73;;;;;;;;;;5038345;28;20213;-70
2023/07/21 06:17:05;;;;;;;2.60;1.60;;;;;;;;;;5040960;28;20217;-70
2023/07/21 06:19:34;;;;;;;2.93;1.60;;;;;;;;;;5038084;28;20213;-69
2023/07/21 06:22:02;;;;;;;4.90;1.87;;;;;;;;;;5038082;28;20235;-70
2023/07/21 06:24:30;;;;;;;5.30;1.70;;;;;;;;;;5066803;28;20204;-70
2023/07/21 06:26:58;;;;;;;3.13;1.90;;;;;;;;;;5068040;28;20204;-70
2023/07/21 06:29:26;;;;;;;3.37;1.60;;;;;;;;;;5069084;28;20286;-70
2023/07/21 06:31:54;;;;;;;2.57;1.80;;;;;;;;;;5068214;28;20263;-68
2023/07/21 06:34:23;;;;;;;7.83;1.47;;;;;;;;;;5045266;28;20237;-70
2023/07/21 06:36:51;;;;;;;2.50;1.60;;;;;;;;;;5040359;28;20207;-69
2023/07/21 06:39:21;;;;;;;3.90;1.73;;;;;;;;;;5042762;28;20651;-67
2023/07/21 06:41:48;;;;;;;5.23;2.33;;;;;;;;;;5051405;28;20279;-68
2023/07/21 06:44:17;;;;;;;3.33;1.70;;;;;;;;;;5046003;28;20207;-68
2023/07/21 06:46:47;;;;;;;4.70;1.60;;;;;;;;;;5054160;28;20275;-68
2023/07/21 06:49:15;;;;;;;4.30;1.77;;;;;;;;;;5057220;28;20237;-68
2023/07/21 06:51:44;;;;;;;3.33;1.83;;;;;;;;;;5041119;28;20666;-68
2023/07/21 06:54:12;;;;;;;6.93;2.07;;;;;;;;;;5037566;28;20214;-67
2023/07/21 06:56:40;;;;;;;5.37;2.23;;;;;;;;;;5037745;28;20232;-61
2023/07/21 06:59:08;;;;;;;5.53;2.13;;;;;;;;;;5041723;28;20213;-62
2023/07/21 07:01:35;;;;;;;9.63;2.17;;;;;;;;;;5051265;28;20307;-62
2023/07/21 07:04:03;;;;;;;4.70;2.37;;;;;;;;;;5037459;28;20221;-62
2023/07/21 07:06:31;;;;;;;3.40;1.73;;;;;;;;;;5037245;28;20626;-62
2023/07/21 07:09:00;;;;;;;3.73;1.63;;;;;;;;;;5037351;28;20597;-62
2023/07/21 07:11:28;;;;;;;9.80;2.20;;;;;;;;;;5037570;28;20263;-61
2023/07/21 07:13:56;;;;;;;7.07;1.97;;;;;;;;;;5037440;28;20579;-61
2023/07/21 07:16:24;;;;;;;2.60;1.57;;;;;;;;;;5037798;28;20219;-62
2023/07/21 07:18:51;;;;;;;3.43;2.13;;;;;;;;;;5049962;28;20245;-62
2023/07/21 07:21:20;;;;;;;5.47;1.87;;;;;;;;;;5037181;28;20328;-62
2023/07/21 07:23:48;;;;;;;3.63;1.73;;;;;;;;;;5037555;28;20249;-62
2023/07/21 07:26:17;;;;;;;4.23;2.33;;;;;;;;;;5037318;28;20303;-62
2023/07/21 07:28:45;;;;;;;5.43;2.23;;;;;;;;;;5042260;28;20696;-62
2023/07/21 07:31:13;;;;;;;3.80;2.07;;;;;;;;;;5051545;28;20307;-62
2023/07/21 07:33:41;;;;;;;2.07;1.80;;;;;;;;;;5056940;28;20241;-62
2023/07/21 07:36:08;;;;;;;10.50;2.23;;;;;;;;;;5056922;28;20207;-62
2023/07/21 07:38:36;;;;;;;6.23;2.07;;;;;;;;;;5057331;28;20253;-61
2023/07/21 07:41:05;;;;;;;4.63;1.87;;;;;;;;;;5054409;28;20231;-62
2023/07/21 07:43:35;;;;;;;5.50;2.20;;;;;;;;;;5040131;28;20211;-62
2023/07/21 07:46:03;;;;;;;7.27;2.77;;;;;;;;;;5041095;28;20290;-62
2023/07/21 07:48:33;;;;;;;6.67;2.33;;;;;;;;;;5040614;28;20230;-64
2023/07/21 07:51:02;;;;;;;6.20;2.23;;;;;;;;;;5040847;28;20692;-62
2023/07/21 07:53:30;;;;;;;4.10;1.70;;;;;;;;;;5040814;28;20221;-62
2023/07/21 07:55:58;;;;;;;1.60;1.50;;;;;;;;;;5040833;28;20210;-62
2023/07/21 07:58:26;;;;;;;8.20;2.20;;;;;;;;;;5040906;28;20318;-61
2023/07/21 08:00:57;;;;;;;3.33;1.90;;;;;;;;;;5057586;28;20260;-64
2023/07/21 08:03:25;;;;;;;5.20;1.80;;;;;;;;;;5055676;28;20226;-62
2023/07/21 08:05:54;;;;;;;4.17;1.90;;;;;;;;;;5040211;28;20555;-64
2023/07/21 08:08:22;;;;;;;2.87;1.60;;;;;;;;;;5043544;28;20236;-62
2023/07/21 08:10:49;;;;;;;6.80;2.47;;;;;;;;;;5040096;28;20318;-63
2023/07/21 08:13:17;;;;;;;5.93;2.10;;;;;;;;;;5040186;28;20210;-64
2023/07/21 08:15:46;;;;;;;5.40;1.90;;;;;;;;;;5040130;28;20256;-64
2023/07/21 08:18:15;;;;;;;5.40;2.37;;;;;;;;;;5052831;28;20214;-63
2023/07/21 08:20:43;;;;;;;2.80;1.60;;;;;;;;;;5040137;28;20290;-63
2023/07/21 08:23:11;;;;;;;2.90;1.90;;;;;;;;;;5039749;28;20672;-62
2023/07/21 08:25:55;;;;;;;1.70;1.60;;;;;;;;;;5040370;28;20636;-62
2023/07/21 08:28:23;;;;;;;4.07;1.53;;;;;;;;;;5040170;28;20275;-62
2023/07/21 08:30:51;;;;;;;3.30;1.90;;;;;;;;;;5039936;28;20321;-61
2023/07/21 08:33:27;;;;;;;1.93;1.60;;;;;;;;;;5047482;28;20713;-62
2023/07/21 08:35:55;;;;;;;1.90;1.60;;;;;;;;;;5059813;28;20215;-62
2023/07/21 08:38:23;;;;;;;1.97;1.77;;;;;;;;;;5059721;28;20210;-61
2023/07/21 08:40:53;;;;;;;3.00;1.57;;;;;;;;;;5057569;28;20233;-61
2023/07/21 08:43:21;;;;;;;2.93;1.60;;;;;;;;;;5039944;28;20274;-61
2023/07/21 08:45:50;;;;;;;4.47;1.63;;;;;;;;;;5039828;28;20724;-62
2023/07/21 08:48:20;;;;;;;2.20;1.67;;;;;;;;;;5039467;28;20215;-61
2023/07/21 08:50:53;;;;;;;1.70;1.60;;;;;;;;;;5039401;28;20229;-61
2023/07/21 08:53:21;;;;;;;3.60;1.67;;;;;;;;;;5039446;28;20211;-61
2023/07/21 08:55:49;;;;;;;6.50;1.60;;;;;;;;;;5042470;28;20212;-62
2023/07/21 08:58:17;;;;;;;1.83;1.60;;;;;;;;;;5039793;28;20216;-62
2023/07/21 09:00:44;;;;;;;2.40;1.40;;;;;;;;;;5050750;28;20231;-61
2023/07/21 09:03:20;;;;;;;1.30;1.20;;;;;;;;;;5052482;28;20275;-61
2023/07/21 09:05:50;;;;;;;3.27;1.33;;;;;;;;;;5039673;28;20209;-61
2023/07/21 09:08:19;;;;;;;2.27;1.73;;;;;;;;;;5039673;28;20298;-61
2023/07/21 09:10:47;;;;;;;4.30;1.40;;;;;;;;;;5039570;28;20246;-61
2023/07/21 09:13:15;;;;;;;5.87;1.70;;;;;;;;;;5039553;28;20211;-61
2023/07/21 09:15:50;;;;;;;3.87;2.40;;;;;;;;;;5039558;28;20208;-61
2023/07/21 09:18:18;;;;;;;3.47;1.70;;;;;;;;;;5039255;28;20644;-61
2023/07/21 09:20:46;;;;;;;2.47;1.60;;;;;;;;;;5039421;28;20310;-61
2023/07/21 09:23:18;;;;;;;3.90;1.90;;;;;;;;;;5038964;28;20215;-62
2023/07/21 09:25:49;;;;;;;4.00;2.10;;;;;;;;;;5039325;28;20212;-62
2023/07/21 09:28:17;;;;;;;3.50;1.83;;;;;;;;;;5039434;28;20271;-61
2023/07/21 09:30:52;;;;;;;2.67;1.40;;;;;;;;;;5038998;28;20686;-61
2023/07/21 09:33:24;;;;;;;4.17;1.80;;;;;;;;;;5038842;28;20235;-62
2023/07/21 09:35:52;;;;;;;3.37;1.80;;;;;;;;;;5038914;28;20215;-62
2023/07/21 09:38:23;;;;;;;3.90;1.70;;;;;;;;;;5038865;28;20208;-62
2023/07/21 09:40:50;;;;;;;3.00;1.60;;;;;;;;;;5046264;28;20305;-62
2023/07/21 09:43:18;;;;;;;4.53;1.67;;;;;;;;;;5039137;28;20214;-62
2023/07/21 09:45:46;;;;;;;2.23;1.70;;;;;;;;;;5038880;28;20212;-62
2023/07/21 09:48:14;;;;;;;2.30;1.40;;;;;;;;;;5038672;28;20207;-62
2023/07/21 09:50:42;;;;;;;2.73;1.77;;;;;;;;;;5038829;28;20236;-61
2023/07/21 09:53:11;;;;;;;5.00;1.83;;;;;;;;;;5038773;28;20213;-61
2023/07/21 09:55:41;;;;;;;7.00;1.67;;;;;;;;;;5038554;28;20742;-61
2023/07/21 09:58:10;;;;;;;2.87;1.70;;;;;;;;;;5038842;28;20207;-61
2023/07/21 10:00:40;;;;;;;2.77;1.73;;;;;;;;;;5048102;28;20787;-61
2023/07/21 10:03:09;;;;;;;2.77;1.77;;;;;;;;;;5051661;28;20258;-61
2023/07/21 10:05:38;;;;;;;3.77;1.93;;;;;;;;;;5037531;28;20282;-61
2023/07/21 10:08:09;;;;;;;4.07;1.50;;;;;;;;;;5038542;28;20210;-61
2023/07/21 10:10:40;;;;;;;1.63;1.53;;;;;;;;;;5038110;28;20643;-62
2023/07/21 10:13:12;;;;;;;3.23;2.00;;;;;;;;;;5038229;28;20219;-61
2023/07/21 10:15:46;;;;;;;1.87;1.77;;;;;;;;;;5038703;28;20294;-61
2023/07/21 10:18:14;;;;;;;3.27;2.00;;;;;;;;;;5037818;28;20570;-62
2023/07/21 10:20:44;;;;;;;3.00;1.87;;;;;;;;;;5038266;28;20224;-62
2023/07/21 10:23:13;;;;;;;3.60;1.90;;;;;;;;;;5038244;28;20657;-62
2023/07/21 10:25:58;;;;;;;2.17;1.90;;;;;;;;;;5038072;28;20213;-61
2023/07/21 10:28:34;;;;;;;5.17;1.60;;;;;;;;;;5038317;28;20208;-63
2023/07/21 10:31:20;;;;;;;3.30;2.33;;;;;;;;;;5037726;28;20233;-62
2023/07/21 10:34:01;;;;;;;3.40;1.77;;;;;;;;;;5037162;28;20236;-61
2023/07/21 10:36:39;;;;;;;3.03;2.00;;;;;;;;;;5037858;28;20296;-62
2023/07/21 10:39:07;;;;;;;3.53;1.70;;;;;;;;;;5038154;28;20729;-63
2023/07/21 10:41:35;;;;;;;1.90;1.70;;;;;;;;;;5046165;28;20227;-63
2023/07/21 10:44:07;;;;;;;1.90;1.67;;;;;;;;;;5037881;28;20212;-61
2023/07/21 10:46:35;;;;;;;1.93;1.73;;;;;;;;;;5037856;28;20216;-64
2023/07/21 10:49:03;;;;;;;2.90;2.10;;;;;;;;;;5037692;28;20218;-64
2023/07/21 10:51:31;;;;;;;4.00;2.03;;;;;;;;;;5037520;28;20235;-64
2023/07/21 10:53:59;;;;;;;2.37;1.63;;;;;;;;;;5037635;28;20207;-64
2023/07/21 10:56:27;;;;;;;2.03;1.83;;;;;;;;;;5037751;28;20231;-64
2023/07/21 10:58:55;;;;;;;2.83;2.57;;;;;;;;;;5039902;28;20736;-63
2023/07/21 11:01:24;;;;;;;1.80;1.60;;;;;;;;;;5052900;28;20305;-61
2023/07/21 11:03:53;;;;;;;4.60;2.23;;;;;;;;;;5038812;28;20213;-61
2023/07/21 11:06:22;;;;;;;1.77;1.67;;;;;;;;;;5037489;28;20566;-62
2023/07/21 11:08:50;;;;;;;3.80;1.93;;;;;;;;;;5037647;28;20213;-62
2023/07/21 11:11:17;;;;;;;2.60;1.80;;;;;;;;;;5037534;28;20234;-62
2023/07/21 11:13:45;;;;;;;10.17;2.00;;;;;;;;;;5037327;28;20627;-61
2023/07/21 11:16:13;;;;;;;7.83;2.50;;;;;;;;;;5038477;28;20670;-62
2023/07/21 11:18:43;;;;;;;3.73;1.93;;;;;;;;;;5041187;28;20239;-63
2023/07/21 11:21:10;;;;;;;6.93;1.87;;;;;;;;;;5041491;28;20315;-63
2023/07/21 11:23:38;;;;;;;4.47;1.90;;;;;;;;;;5041458;28;20292;-63
2023/07/21 11:26:08;;;;;;;2.83;1.57;;;;;;;;;;5041460;28;20227;-63
2023/07/21 11:28:37;;;;;;;6.20;1.83;;;;;;;;;;5041478;28;20610;-63
2023/07/21 11:31:10;;;;;;;4.00;1.83;;;;;;;;;;5041637;28;20239;-61
2023/07/21 11:33:43;;;;;;;5.37;2.20;;;;;;;;;;5050942;28;20240;-62
2023/07/21 11:36:12;;;;;;;5.33;1.83;;;;;;;;;;5041266;28;20670;-63
2023/07/21 11:38:41;;;;;;;3.67;1.80;;;;;;;;;;5041399;28;20267;-63
2023/07/21 11:41:09;;;;;;;2.97;1.80;;;;;;;;;;5050194;28;20772;-63
2023/07/21 11:43:47;;;;;;;3.77;1.70;;;;;;;;;;5041036;28;20642;-63
2023/07/21 11:46:21;;;;;;;3.33;2.93;;;;;;;;;;5041418;28;20548;-63
2023/07/21 11:48:51;;;;;;;2.20;1.73;;;;;;;;;;5040714;28;20208;-63
2023/07/21 11:51:22;;;;;;;3.07;2.77;;;;;;;;;;5041033;28;20237;-63
2023/07/21 11:53:51;;;;;;;3.07;1.87;;;;;;;;;;5040871;28;20233;-63
2023/07/21 11:56:19;;;;;;;4.77;3.13;;;;;;;;;;5041129;28;20215;-63
2023/07/21 11:58:47;;;;;;;5.83;2.77;;;;;;;;;;5042013;28;20209;-63
2023/07/21 12:01:15;;;;;;;3.37;1.80;;;;;;;;;;5050807;28;20585;-63
2023/07/21 12:03:43;;;;;;;1.33;1.20;;;;;;;;;;5041920;28;20269;-63
2023/07/21 12:06:12;;;;;;;1.80;1.50;;;;;;;;;;5051333;28;20688;-63
2023/07/21 12:08:41;;;;;;;2.53;1.77;;;;;;;;;;5056020;28;20237;-63
2023/07/21 12:11:08;;;;;;;2.13;1.83;;;;;;;;;;5040401;28;20250;-63
2023/07/21 12:13:36;;;;;;;2.23;1.70;;;;;;;;;;5040819;28;20208;-63
2023/07/21 12:16:04;;;;;;;2.73;1.90;;;;;;;;;;5040890;28;20220;-63
2023/07/21 12:18:33;;;;;;;3.03;1.83;;;;;;;;;;5040419;28;20209;-63
2023/07/21 12:21:00;;;;;;;2.47;1.80;;;;;;;;;;5040468;28;20226;-63
2023/07/21 12:23:29;;;;;;;1.73;1.63;;;;;;;;;;5040567;28;20217;-63
2023/07/21 12:25:57;;;;;;;3.50;1.77;;;;;;;;;;5040355;28;20210;-63
2023/07/21 12:28:25;;;;;;;2.10;1.80;;;;;;;;;;5039661;28;20666;-63
2023/07/21 12:30:53;;;;;;;4.87;1.90;;;;;;;;;;5040294;28;20328;-63
2023/07/21 12:33:21;;;;;;;1.80;1.70;;;;;;;;;;5053340;28;20599;-63
2023/07/21 12:35:49;;;;;;;3.67;1.95;;;;;;;;;;5040218;28;20761;-63
2023/07/21 12:38:17;;;;;;;2.83;2.00;;;;;;;;;;5039900;28;20216;-63
2023/07/21 12:40:46;;;;;;;2.50;1.50;;;;;;;;;;5050310;28;20226;-63
2023/07/21 12:43:16;;;;;;;2.78;1.70;;;;;;;;;;5040248;28;20206;-63
2023/07/21 12:45:44;;;;;;;2.38;1.63;;;;;;;;;;5040090;28;20207;-63
2023/07/21 12:48:12;;;;;;;4.13;1.83;;;;;;;;;;5039921;28;20212;-69
2023/07/21 12:50:40;;;;;;;2.80;1.80;;;;;;;;;;5039829;28;20235;-68
2023/07/21 12:53:07;;;;;;;3.97;2.17;;;;;;;;;;5040755;28;20658;-67
2023/07/21 12:55:35;;;;;;;3.38;1.55;;;;;;;;;;5040218;28;20256;-68
2023/07/21 12:58:05;;;;;;;4.25;2.00;;;;;;;;;;5040444;28;20220;-67
2023/07/21 13:00:33;;;;;;;2.40;1.55;;;;;;;;;;5053626;28;20313;-68
2023/07/21 13:03:01;;;;;;;2.00;1.80;;;;;;;;;;5070872;28;20228;-68
2023/07/21 13:05:29;;;;;;;1.63;1.42;;;;;;;;;;5069839;28;20265;-68
2023/07/21 13:07:59;;;;;;;2.33;1.60;;;;;;;;;;5069841;28;20248;-67
2023/07/21 13:10:26;;;;;;;2.40;1.75;;;;;;;;;;5066586;28;20221;-68
2023/07/21 13:12:54;;;;;;;4.43;1.77;;;;;;;;;;5066781;28;20277;-68
2023/07/21 13:15:23;;;;;;;1.85;1.73;;;;;;;;;;5039289;28;20567;-66
2023/07/21 13:17:51;;;;;;;2.97;1.50;;;;;;;;;;5038875;28;20209;-67
2023/07/21 13:20:22;;;;;;;2.22;1.67;;;;;;;;;;5038684;28;20859;-67
2023/07/21 13:22:49;;;;;;;1.75;1.50;;;;;;;;;;5038767;28;20310;-67
2023/07/21 13:25:17;;;;;;;2.17;1.70;;;;;;;;;;5037973;28;20235;-67
2023/07/21 13:27:45;;;;;;;2.72;1.60;;;;;;;;;;5039073;28;20726;-67
2023/07/21 13:30:13;;;;;;;4.95;1.70;;;;;;;;;;5039139;28;20706;-67
2023/07/21 13:32:42;;;;;;;1.90;1.75;;;;;;;;;;5050472;28;20261;-67
2023/07/21 13:35:10;;;;;;;2.05;1.77;;;;;;;;;;5056746;28;20207;-67
2023/07/21 13:37:38;;;;;;;1.65;1.42;;;;;;;;;;5059042;28;20235;-67
2023/07/21 13:40:07;;;;;;;3.70;1.90;;;;;;;;;;5056272;28;20218;-67
2023/07/21 13:42:36;;;;;;;2.08;1.80;;;;;;;;;;5039042;28;20209;-67
2023/07/21 13:45:04;;;;;;;2.80;1.60;;;;;;;;;;5039060;28;20230;-67
2023/07/21 13:47:32;;;;;;;2.05;1.80;;;;;;;;;;5038723;28;20225;-67
2023/07/21 13:50:01;;;;;;;4.55;2.13;;;;;;;;;;5038384;28;20748;-67
2023/07/21 13:52:29;;;;;;;3.38;2.47;;;;;;;;;;5038753;28;20243;-67
2023/07/21 13:54:57;;;;;;;3.57;1.97;;;;;;;;;;5038802;28;20208;-67
2023/07/21 13:57:25;;;;;;;2.83;1.93;;;;;;;;;;5038666;28;20297;-66
2023/07/21 13:59:55;;;;;;;3.70;1.90;;;;;;;;;;5048029;28;20230;-66
2023/07/21 14:02:23;;;;;;;2.13;1.93;;;;;;;;;;5048528;28;20306;-66
2023/07/21 14:04:51;;;;;;;2.23;1.77;;;;;;;;;;5041447;28;20229;-66
2023/07/21 14:07:21;;;;;;;1.93;1.83;;;;;;;;;;5038282;28;20565;-66
2023/07/21 14:09:49;;;;;;;4.63;2.17;;;;;;;;;;5038039;28;20254;-66
2023/07/21 14:12:20;;;;;;;3.20;1.80;;;;;;;;;;5038238;28;20238;-66
2023/07/21 14:14:48;;;;;;;3.43;1.83;;;;;;;;;;5047815;28;20707;-66
2023/07/21 14:17:15;;;;;;;2.88;2.03;;;;;;;;;;5050410;28;20294;-66
2023/07/21 14:19:43;;;;;;;4.10;1.90;;;;;;;;;;5055265;28;20219;-66
2023/07/21 14:22:11;;;;;;;2.78;1.90;;;;;;;;;;5044531;28;20195;-66
2023/07/21 14:24:40;;;;;;;3.00;1.92;;;;;;;;;;5041944;28;20221;-66
2023/07/21 14:27:08;;;;;;;2.38;2.17;;;;;;;;;;5038103;28;20238;-67
2023/07/21 14:29:36;;;;;;;7.78;1.85;;;;;;;;;;5037958;28;20213;-67
2023/07/21 14:32:04;;;;;;;3.67;1.98;;;;;;;;;;5049582;28;20222;-67
2023/07/21 14:34:32;;;;;;;3.00;2.10;;;;;;;;;;5043597;28;20295;-67
2023/07/21 14:37:00;;;;;;;3.22;2.15;;;;;;;;;;5037809;28;20240;-67
2023/07/21 14:39:28;;;;;;;4.50;1.95;;;;;;;;;;5037505;28;20522;-65
2023/07/21 14:41:57;;;;;;;6.00;1.88;;;;;;;;;;5046382;28;20291;-67
2023/07/21 14:44:27;;;;;;;1.65;1.50;;;;;;;;;;5037960;28;20292;-67
2023/07/21 14:46:55;;;;;;;3.25;1.98;;;;;;;;;;5037594;28;20213;-66
2023/07/21 14:49:23;;;;;;;8.40;1.70;;;;;;;;;;5051605;28;20653;-66
2023/07/21 14:51:51;;;;;;;6.97;1.88;;;;;;;;;;5057079;28;20332;-67